Time;durP1;ratioP1;P1;durP2;ratioP2;P2;SDS_P1;SDS_P2;PMS_P1;PMS_P2;Temp;Humidity;BMP_temperature;BMP_pressure;BME280_temperature;BME280_humidity;BME280_pressure;Samples;Min_cycle;Max_cycle;Signal;HPM_P1;HPM_P2
2023/06/28 00:01:20;;;;;;;5.50;3.30;;;;;;;11.94;100.00;98568.45;137324;1274;22609;-81
2023/06/28 00:04:23;;;;;;;13.60;6.90;;;;;;;11.94;100.00;98569.66;137459;1274;22858;-83
2023/06/28 00:07:26;;;;;;;11.40;10.30;;;;;;;11.93;100.00;98570.54;137468;1274;22519;-83
2023/06/28 00:10:29;;;;;;;10.50;9.20;;;;;;;11.92;100.00;98571.41;137280;1274;22210;-84
2023/06/28 00:13:32;;;;;;;13.80;7.30;;;;;;;11.92;100.00;98567.05;137355;1274;22196;-84
2023/06/28 00:16:35;;;;;;;10.60;6.40;;;;;;;11.91;100.00;98564.96;137302;1274;22537;-82
2023/06/28 00:19:47;;;;;;;8.60;4.80;;;;;;;11.92;100.00;98571.23;137311;1274;22176;-83
2023/06/28 00:22:51;;;;;;;5.80;5.20;;;;;;;11.93;100.00;98571.59;137408;1274;22588;-82
2023/06/28 00:25:53;;;;;;;10.30;7.00;;;;;;;11.92;100.00;98567.92;137436;1274;22293;-83
2023/06/28 00:28:56;;;;;;;9.00;5.60;;;;;;;11.93;100.00;98571.59;137428;1274;22371;-81
2023/06/28 00:31:58;;;;;;;11.50;7.80;;;;;;;11.91;100.00;98572.98;137449;1274;22541;-82
2023/06/28 00:35:01;;;;;;;7.00;6.40;;;;;;;11.87;100.00;98577.85;137296;1274;22201;-82
2023/06/28 00:38:04;;;;;;;9.60;5.90;;;;;;;11.84;100.00;98580.46;137257;1274;25565;-82
2023/06/28 00:41:07;;;;;;;11.10;4.00;;;;;;;11.81;100.00;98579.58;137381;1274;22242;-82
2023/06/28 00:44:26;;;;;;;8.20;4.40;;;;;;;11.75;100.00;98579.35;137486;1274;22194;-83
2023/06/28 00:47:28;;;;;;;4.20;3.30;;;;;;;11.73;100.00;98579.88;137501;1269;22177;-82
2023/06/28 00:50:32;;;;;;;11.60;5.20;;;;;;;11.72;100.00;98579.52;137317;1274;22215;-82
2023/06/28 00:53:34;;;;;;;7.90;5.00;;;;;;;11.71;100.00;98576.02;137434;1274;22907;-82
2023/06/28 00:56:37;;;;;;;11.00;4.90;;;;;;;11.73;100.00;98575.52;137388;1274;22261;-82
2023/06/28 00:59:39;;;;;;;11.90;5.80;;;;;;;11.70;100.00;98574.11;137236;1274;22614;-81
2023/06/28 01:02:44;;;;;;;7.70;5.30;;;;;;;11.68;100.00;98573.40;137375;1267;22235;-83
2023/06/28 01:05:47;;;;;;;7.80;5.50;;;;;;;11.68;100.00;98573.41;137416;1274;22618;-83
2023/06/28 01:08:50;;;;;;;14.50;6.30;;;;;;;11.68;100.00;98572.02;137401;1274;22254;-83
2023/06/28 01:11:53;;;;;;;5.80;4.60;;;;;;;11.67;100.00;98569.91;137454;1274;22216;-82
2023/06/28 01:14:55;;;;;;;6.90;4.30;;;;;;;11.64;100.00;98569.55;137450;1274;22219;-82
2023/06/28 01:18:00;;;;;;;9.10;6.00;;;;;;;11.61;100.00;98569.20;137321;1274;22365;-82
2023/06/28 01:21:02;;;;;;;11.90;5.60;;;;;;;11.60;100.00;98566.23;137283;1274;22971;-82
2023/06/28 01:24:05;;;;;;;11.30;5.70;;;;;;;11.58;100.00;98561.35;137357;1274;22554;-82
2023/06/28 01:27:08;;;;;;;4.80;3.90;;;;;;;11.59;100.00;98564.67;137423;1274;22205;-82
2023/06/28 01:30:12;;;;;;;15.00;10.30;;;;;;;11.61;100.00;98557.88;137479;1274;22252;-83
2023/06/28 01:33:15;;;;;;;5.30;3.70;;;;;;;11.63;100.00;98558.40;137407;1274;22594;-82
2023/06/28 01:36:17;;;;;;;6.20;3.20;;;;;;;11.60;100.00;98555.95;137308;1274;22216;-83
2023/06/28 01:39:20;;;;;;;7.50;3.20;;;;;;;11.59;100.00;98554.02;137383;1259;22228;-83
2023/06/28 01:42:22;;;;;;;8.80;3.50;;;;;;;11.58;100.00;98552.81;137416;1274;22182;-83
2023/06/28 01:45:25;;;;;;;5.50;3.10;;;;;;;11.58;100.00;98554.02;137433;1273;22196;-82
2023/06/28 01:48:28;;;;;;;6.10;3.60;;;;;;;11.60;100.00;98554.22;137372;1274;22285;-83
2023/06/28 01:51:31;;;;;;;5.20;2.80;;;;;;;11.63;100.00;98553.00;137489;1274;22253;-83
2023/06/28 01:54:34;;;;;;;5.80;2.90;;;;;;;11.66;100.00;98551.27;137298;1261;22246;-83
2023/06/28 01:57:36;;;;;;;4.20;3.20;;;;;;;11.68;100.00;98553.36;137374;1274;22395;-83
2023/06/28 02:00:39;;;;;;;9.00;3.60;;;;;;;11.70;100.00;98553.20;137395;1274;22226;-84
2023/06/28 02:03:42;;;;;;;9.00;4.90;;;;;;;11.71;100.00;98555.46;137380;1274;22254;-83
2023/06/28 02:06:45;;;;;;;8.50;5.10;;;;;;;11.67;100.00;98553.02;137423;1274;22711;-84
2023/06/28 02:09:49;;;;;;;7.70;4.80;;;;;;;11.63;100.00;98548.47;137030;1273;22240;-82
2023/06/28 02:12:52;;;;;;;23.60;8.10;;;;;;;11.60;100.00;98548.81;137403;1274;22470;-84
2023/06/28 02:15:56;;;;;;;10.90;7.40;;;;;;;11.56;100.00;98546.54;137120;1273;22236;-83
2023/06/28 02:18:59;;;;;;;9.90;8.50;;;;;;;11.52;100.00;98546.87;137315;1274;22287;-83
2023/06/28 02:22:01;;;;;;;9.70;7.20;;;;;;;11.49;100.00;98550.69;137217;1273;22193;-81
2023/06/28 02:25:04;;;;;;;15.30;8.90;;;;;;;11.44;100.00;98553.64;137286;1274;22555;-81
2023/06/28 02:28:07;;;;;;;8.50;7.00;;;;;;;11.41;100.00;98558.33;137356;1274;22204;-84
2023/06/28 02:31:09;;;;;;;9.50;6.90;;;;;;;11.37;100.00;98555.35;137342;1273;23079;-84
2023/06/28 02:34:12;;;;;;;13.70;11.40;;;;;;;11.37;100.00;98552.05;137197;1274;22216;-83
2023/06/28 02:37:15;;;;;;;11.20;9.80;;;;;;;11.52;100.00;98552.44;137343;1274;22208;-84
2023/06/28 02:40:19;;;;;;;8.60;7.20;;;;;;;11.46;100.00;98554.00;137296;1274;22225;-84
2023/06/28 02:43:21;;;;;;;13.10;5.30;;;;;;;11.41;100.00;98557.81;137391;1274;22691;-83
2023/06/28 02:46:24;;;;;;;7.40;4.60;;;;;;;11.38;100.00;98550.99;137375;1274;22726;-83
2023/06/28 02:49:26;;;;;;;6.60;4.50;;;;;;;11.36;100.00;98550.81;137420;1274;22663;-83
2023/06/28 02:52:29;;;;;;;5.50;3.50;;;;;;;11.35;100.00;98552.21;137332;1274;22605;-82
2023/06/28 02:55:31;;;;;;;5.10;3.50;;;;;;;11.35;100.00;98550.64;137327;1274;22947;-83
2023/06/28 02:58:34;;;;;;;7.30;6.40;;;;;;;11.36;100.00;98558.83;137328;1274;22213;-83
2023/06/28 03:01:37;;;;;;;11.60;7.60;;;;;;;11.36;100.00;98561.96;137305;1274;22421;-83
2023/06/28 03:04:39;;;;;;;8.40;7.10;;;;;;;11.37;100.00;98565.11;137315;1274;22372;-83
2023/06/28 03:07:42;;;;;;;9.60;8.20;;;;;;;11.36;100.00;98560.56;137379;1274;22590;-83
2023/06/28 03:10:46;;;;;;;16.20;7.10;;;;;;;11.39;100.00;98563.38;137339;1274;22181;-84
2023/06/28 03:13:49;;;;;;;15.90;8.30;;;;;;;11.37;100.00;98566.50;137351;1274;22597;-84
2023/06/28 03:16:52;;;;;;;10.90;9.10;;;;;;;11.39;100.00;98565.81;137119;1270;22587;-82
2023/06/28 03:19:54;;;;;;;12.60;10.00;;;;;;;11.41;100.00;98566.16;137306;1274;22426;-82
2023/06/28 03:22:57;;;;;;;11.90;8.30;;;;;;;11.46;100.00;98570.38;137323;1274;22553;-76
2023/06/28 03:25:59;;;;;;;24.40;10.50;;;;;;;11.49;100.00;98568.64;137377;1274;22554;-81
2023/06/28 03:29:02;;;;;;;9.70;5.50;;;;;;;11.54;100.00;98564.13;137010;1274;22098;-81
2023/06/28 03:32:04;;;;;;;16.90;6.50;;;;;;;11.57;100.00;98565.35;136979;1274;22519;-82
2023/06/28 03:35:07;;;;;;;9.20;5.20;;;;;;;11.61;100.00;98561.89;137508;1274;22259;-82
2023/06/28 03:38:09;;;;;;;6.20;5.50;;;;;;;11.67;100.00;98558.77;137351;1274;22204;-82
2023/06/28 03:41:13;;;;;;;7.20;5.70;;;;;;;11.68;100.00;98557.02;137301;1274;22541;-83
2023/06/28 03:44:15;;;;;;;11.00;6.50;;;;;;;11.69;100.00;98560.50;137330;1269;22614;-82
2023/06/28 03:47:18;;;;;;;8.80;4.70;;;;;;;11.71;100.00;98557.73;137391;1274;22159;-81
2023/06/28 03:50:21;;;;;;;7.30;4.80;;;;;;;11.74;100.00;98547.27;137175;1274;22559;-81
2023/06/28 03:53:23;;;;;;;13.60;6.00;;;;;;;11.80;100.00;98551.68;137241;1274;22269;-82
2023/06/28 03:56:26;;;;;;;9.10;5.30;;;;;;;11.86;100.00;98551.88;137399;1270;22269;-82
2023/06/28 03:59:28;;;;;;;7.60;5.30;;;;;;;12.02;100.00;98559.21;137352;1274;22614;-83
2023/06/28 04:02:31;;;;;;;8.60;5.50;;;;;;;12.25;100.00;98560.84;137328;1274;22397;-81
2023/06/28 04:05:33;;;;;;;5.80;4.20;;;;;;;12.51;100.00;98563.64;137382;1274;22544;-82
2023/06/28 04:08:36;;;;;;;8.60;4.30;;;;;;;12.83;100.00;98562.56;137300;1274;22271;-83
2023/06/28 04:11:39;;;;;;;5.00;3.90;;;;;;;13.19;100.00;98563.39;137341;1274;22243;-83
2023/06/28 04:14:41;;;;;;;8.80;4.30;;;;;;;13.52;100.00;98566.27;137398;1274;22281;-82
2023/06/28 04:17:44;;;;;;;7.20;3.60;;;;;;;13.65;100.00;98568.64;137413;1273;22390;-82
2023/06/28 04:20:47;;;;;;;8.60;4.30;;;;;;;13.64;100.00;98565.85;137416;1265;22227;-82
2023/06/28 04:23:49;;;;;;;7.10;3.10;;;;;;;13.75;100.00;98562.82;137367;1274;22235;-83
2023/06/28 04:26:52;;;;;;;4.70;2.80;;;;;;;14.03;100.00;98558.66;137457;1274;22282;-83
2023/06/28 04:29:54;;;;;;;5.40;3.10;;;;;;;14.15;100.00;98556.31;137388;1266;22541;-83
2023/06/28 04:32:57;;;;;;;5.10;3.20;;;;;;;14.17;100.00;98558.05;137361;1274;22100;-81
2023/06/28 04:36:01;;;;;;;4.90;2.90;;;;;;;14.11;100.00;98563.86;137341;1274;22251;-80
2023/06/28 04:39:04;;;;;;;4.10;2.50;;;;;;;13.96;100.00;98566.58;137372;1274;22154;-79
2023/06/28 04:42:06;;;;;;;3.60;2.70;;;;;;;13.83;100.00;98567.52;137446;1274;22289;-81
2023/06/28 04:45:09;;;;;;;6.70;2.60;;;;;;;13.84;100.00;98573.09;137408;1274;22240;-82
2023/06/28 04:48:12;;;;;;;8.70;2.50;;;;;;;13.97;100.00;98572.17;137366;1274;22245;-82
2023/06/28 04:51:15;;;;;;;6.80;3.00;;;;;;;14.45;100.00;98567.30;137314;1274;22204;-80
2023/06/28 04:54:18;;;;;;;4.20;2.90;;;;;;;14.68;100.00;98567.64;137436;1274;22719;-81
2023/06/28 04:57:21;;;;;;;4.20;3.00;;;;;;;14.59;100.00;98569.29;137401;1274;22294;-80
2023/06/28 05:00:23;;;;;;;10.20;2.80;;;;;;;14.63;100.00;98573.11;137395;1274;22726;-81
2023/06/28 05:03:27;;;;;;;5.70;2.30;;;;;;;14.88;100.00;98574.66;137437;1274;22768;-80
2023/06/28 05:06:30;;;;;;;3.90;2.50;;;;;;;15.09;100.00;98574.63;137349;1274;22244;-81
2023/06/28 05:09:32;;;;;;;4.50;2.70;;;;;;;15.29;100.00;98570.20;137372;1259;22251;-81
2023/06/28 05:12:35;;;;;;;3.40;2.20;;;;;;;15.44;100.00;98573.36;137337;1274;22942;-81
2023/06/28 05:15:37;;;;;;;7.50;2.40;;;;;;;15.52;100.00;98571.16;137374;1274;22159;-83
2023/06/28 05:18:40;;;;;;;4.40;2.50;;;;;;;15.51;100.00;98569.77;137377;1274;22209;-82
2023/06/28 05:21:42;;;;;;;5.30;2.30;;;;;;;15.27;100.00;98566.89;137141;1274;301188;-80
2023/06/28 05:24:45;;;;;;;6.00;2.30;;;;;;;15.27;100.00;98561.11;137403;1274;22262;-83
2023/06/28 05:27:47;;;;;;;8.20;2.50;;;;;;;15.41;100.00;98560.23;137417;1274;22229;-81
2023/06/28 05:30:50;;;;;;;8.80;2.80;;;;;;;15.61;100.00;98553.70;137383;1274;22728;-83
2023/06/28 05:33:52;;;;;;;7.10;2.60;;;;;;;15.89;100.00;98548.80;137349;1274;22331;-82
2023/06/28 05:36:55;;;;;;;7.30;2.50;;;;;;;16.08;100.00;98547.83;137417;1274;22272;-82
2023/06/28 05:39:57;;;;;;;3.80;2.10;;;;;;;16.19;100.00;98547.65;137432;1274;22349;-82
2023/06/28 05:43:00;;;;;;;6.00;2.80;;;;;;;16.27;100.00;98540.86;137488;1274;22220;-82
2023/06/28 05:46:02;;;;;;;3.60;2.30;;;;;;;16.33;100.00;98540.06;137380;1274;22665;-84
2023/06/28 05:49:05;;;;;;;5.30;2.40;;;;;;;16.38;100.00;98539.27;137428;1274;23050;-82
2023/06/28 05:52:07;;;;;;;4.40;2.40;;;;;;;16.51;100.00;98538.74;137400;1274;22209;-81
2023/06/28 05:55:10;;;;;;;7.40;2.80;;;;;;;16.61;100.00;98543.66;137373;1274;22473;-82
2023/06/28 05:58:12;;;;;;;7.20;2.60;;;;;;;16.80;100.00;98535.45;137345;1274;22328;-83
2023/06/28 06:01:15;;;;;;;4.50;2.80;;;;;;;16.93;100.00;98542.95;137352;1274;23116;-83
2023/06/28 06:04:17;;;;;;;5.30;2.60;;;;;;;16.97;100.00;98543.75;137369;1274;22466;-82
2023/06/28 06:07:20;;;;;;;7.60;2.20;;;;;;;17.03;100.00;98548.73;137404;1259;22878;-81
2023/06/28 06:10:22;;;;;;;4.00;2.10;;;;;;;17.20;100.00;98544.73;137446;1274;22738;-80
2023/06/28 06:13:25;;;;;;;4.70;2.20;;;;;;;17.42;100.00;98546.61;137374;1274;22621;-82
2023/06/28 06:16:27;;;;;;;7.10;2.30;;;;;;;17.55;100.00;98552.84;137406;1274;22832;-82
2023/06/28 06:19:31;;;;;;;4.60;2.60;;;;;;;17.48;100.00;98547.35;136882;1274;22309;-82
2023/06/28 06:22:34;;;;;;;3.80;2.20;;;;;;;17.80;100.00;98545.47;137404;1274;22342;-81
2023/06/28 06:25:37;;;;;;;4.20;2.00;;;;;;;17.89;100.00;98548.09;137395;1274;23152;-83
2023/06/28 06:28:39;;;;;;;4.60;2.40;;;;;;;18.08;100.00;98541.15;137479;1274;22216;-82
2023/06/28 06:31:42;;;;;;;4.90;3.00;;;;;;;18.22;100.00;98539.94;137399;1274;22334;-81
2023/06/28 06:34:45;;;;;;;3.90;2.20;;;;;;;18.31;100.00;98537.63;137408;1274;22183;-82
2023/06/28 06:37:47;;;;;;;4.30;2.00;;;;;;;18.09;100.00;98548.33;137369;1270;22688;-81
2023/06/28 06:40:50;;;;;;;7.60;2.00;;;;;;;18.05;100.00;98547.73;137429;1274;23108;-82
2023/06/28 06:43:52;;;;;;;4.30;1.70;;;;;;;18.15;100.00;98545.73;137467;1274;22235;-83
2023/06/28 06:46:55;;;;;;;8.30;2.50;;;;;;;18.35;100.00;98545.27;137460;1274;22610;-82
2023/06/28 06:49:58;;;;;;;16.50;2.60;;;;;;;18.28;100.00;98549.52;137416;1274;22239;-82
2023/06/28 06:53:00;;;;;;;7.00;2.40;;;;;;;18.12;100.00;98548.45;137399;1274;22556;-82
2023/06/28 06:56:03;;;;;;;4.90;2.20;;;;;;;18.04;100.00;98543.52;137445;1274;22210;-81
2023/06/28 06:59:05;;;;;;;8.00;2.20;;;;;;;18.33;100.00;98549.04;137455;1274;22451;-80
2023/06/28 07:02:08;;;;;;;5.60;2.20;;;;;;;18.41;100.00;98547.78;137277;1274;22234;-81
2023/06/28 07:05:11;;;;;;;4.10;2.10;;;;;;;18.56;100.00;98539.84;137312;1274;22173;-81
2023/06/28 07:08:13;;;;;;;4.30;2.30;;;;;;;18.83;100.00;98537.06;137404;1274;22210;-81
2023/06/28 07:11:16;;;;;;;4.30;2.20;;;;;;;19.20;100.00;98538.73;137558;1274;22265;-81
2023/06/28 07:14:18;;;;;;;3.70;2.30;;;;;;;19.49;100.00;98534.04;137498;1274;22172;-81
2023/06/28 07:17:21;;;;;;;5.90;2.40;;;;;;;19.44;100.00;98541.39;137530;1274;22263;-83
2023/06/28 07:20:24;;;;;;;7.30;2.20;;;;;;;19.52;100.00;98536.95;137274;1274;22526;-78
2023/06/28 07:23:26;;;;;;;4.00;1.90;;;;;;;19.74;85.77;98540.73;137489;1274;22418;-81
2023/06/28 07:26:29;;;;;;;12.80;2.20;;;;;;;19.51;63.18;98538.21;137500;1274;22220;-82
2023/06/28 07:29:32;;;;;;;3.60;2.00;;;;;;;19.73;63.98;98534.05;137480;1274;22218;-85
2023/06/28 07:32:34;;;;;;;5.00;2.10;;;;;;;19.92;64.05;98532.61;137420;1274;22213;-84
2023/06/28 07:35:37;;;;;;;5.40;2.20;;;;;;;20.15;62.73;98534.36;137398;1274;22244;-84
2023/06/28 07:38:39;;;;;;;8.80;2.20;;;;;;;20.30;60.45;98533.88;137397;1274;22254;-83
2023/06/28 07:41:42;;;;;;;5.50;2.00;;;;;;;20.04;60.67;98529.06;137439;1268;22221;-84
2023/06/28 07:44:45;;;;;;;10.70;2.90;;;;;;;19.73;61.26;98530.18;137377;1274;22194;-83
2023/06/28 07:47:48;;;;;;;10.60;2.30;;;;;;;19.69;60.93;98532.23;137429;1274;22222;-83
2023/06/28 07:50:51;;;;;;;5.60;2.10;;;;;;;19.61;59.90;98525.41;137433;1274;22726;-83
2023/06/28 07:53:54;;;;;;;5.20;2.60;;;;;;;19.78;60.58;98527.20;137344;1274;22270;-83
2023/06/28 07:56:56;;;;;;;2.50;1.50;;;;;;;19.90;60.21;98520.48;137435;1274;22358;-83
2023/06/28 07:59:59;;;;;;;4.70;2.20;;;;;;;20.09;59.31;98521.33;137404;1274;22312;-82
2023/06/28 08:03:01;;;;;;;5.70;2.20;;;;;;;20.40;60.51;98516.41;137364;1274;22373;-83
2023/06/28 08:06:06;;;;;;;9.40;2.10;;;;;;;21.27;58.21;98511.73;137427;1270;22168;-82
2023/06/28 08:09:09;;;;;;;6.50;2.00;;;;;;;21.21;55.97;98515.10;137404;1274;22662;-84
2023/06/28 08:12:11;;;;;;;6.40;2.20;;;;;;;20.89;57.42;98511.97;137431;1274;22128;-83
2023/06/28 08:15:14;;;;;;;5.50;2.00;;;;;;;20.44;55.92;98516.83;137366;1274;22322;-83
2023/06/28 08:18:17;;;;;;;8.60;2.60;;;;;;;20.00;57.16;98511.52;137365;1274;22350;-84
2023/06/28 08:21:19;;;;;;;5.20;2.20;;;;;;;19.88;57.73;98518.06;137283;1274;22210;-84
2023/06/28 08:24:22;;;;;;;40.40;3.80;;;;;;;19.90;59.41;98513.93;137358;1274;22252;-83
2023/06/28 08:27:25;;;;;;;7.30;2.10;;;;;;;20.17;56.84;98512.56;137346;1274;22243;-84
2023/06/28 08:30:27;;;;;;;5.50;2.30;;;;;;;20.19;56.25;98507.56;137384;1274;22190;-82
2023/06/28 08:33:30;;;;;;;8.00;2.30;;;;;;;20.27;55.18;98508.36;137338;1274;22728;-82
2023/06/28 08:36:32;;;;;;;7.60;2.00;;;;;;;20.14;55.33;98514.98;137358;1270;22202;-82
2023/06/28 08:39:36;;;;;;;6.00;2.00;;;;;;;20.38;56.02;98505.38;137349;1274;22182;-82
2023/06/28 08:42:39;;;;;;;7.10;2.70;;;;;;;20.38;54.24;98507.33;137382;1274;22432;-83
2023/06/28 08:45:41;;;;;;;4.40;2.20;;;;;;;19.91;54.89;98507.21;137326;1274;22374;-83
2023/06/28 08:48:44;;;;;;;7.00;2.30;;;;;;;19.83;55.02;98508.48;137403;1274;22347;-84
2023/06/28 08:51:46;;;;;;;5.00;2.20;;;;;;;20.22;55.07;98490.67;137119;1270;22214;-83
2023/06/28 08:54:51;;;;;;;5.30;2.10;;;;;;;20.50;54.61;98489.97;137264;1274;22527;-82
2023/06/28 08:57:54;;;;;;;9.30;2.50;;;;;;;20.22;56.11;98486.61;137331;1274;22634;-84
2023/06/28 09:00:56;;;;;;;7.20;2.50;;;;;;;19.84;56.91;98492.06;137341;1270;23027;-83
2023/06/28 09:03:59;;;;;;;6.40;1.80;;;;;;;19.40;57.38;98498.29;137364;1274;22350;-83
2023/06/28 09:07:02;;;;;;;3.20;2.70;;;;;;;19.00;58.66;98493.73;137419;1274;22217;-82
2023/06/28 09:10:04;;;;;;;7.30;2.20;;;;;;;19.17;57.40;98492.79;137436;1270;22749;-82
2023/06/28 09:13:07;;;;;;;4.20;2.00;;;;;;;19.57;56.21;98483.86;137426;1274;22186;-84
2023/06/28 09:16:10;;;;;;;7.40;2.40;;;;;;;20.05;56.30;98474.79;137412;1274;22266;-82
2023/06/28 09:19:12;;;;;;;4.30;1.90;;;;;;;20.68;54.14;98473.27;137429;1274;22543;-84
2023/06/28 09:22:17;;;;;;;6.10;1.70;;;;;;;20.77;53.51;98475.94;137475;1274;22641;-84
2023/06/28 09:25:20;;;;;;;3.40;2.00;;;;;;;20.48;53.10;98485.46;137370;1274;22230;-83
2023/06/28 09:28:22;;;;;;;5.00;2.00;;;;;;;20.38;53.56;98480.79;137457;1274;22150;-84
2023/06/28 09:31:25;;;;;;;6.20;2.30;;;;;;;20.12;52.97;98489.77;137506;1274;22266;-84
2023/06/28 09:34:28;;;;;;;9.30;2.20;;;;;;;19.79;54.64;98490.61;137426;1274;22198;-83
2023/06/28 09:37:31;;;;;;;7.50;2.00;;;;;;;19.55;56.13;98493.46;137368;1274;22519;-84
2023/06/28 09:40:33;;;;;;;5.20;2.00;;;;;;;19.43;56.21;98491.30;137406;1274;22702;-81
2023/06/28 09:43:38;;;;;;;3.10;1.70;;;;;;;19.36;55.41;98491.52;137432;1274;22802;-81
2023/06/28 09:46:41;;;;;;;7.10;2.00;;;;;;;19.69;55.80;98477.33;137460;1274;22297;-83
2023/06/28 09:49:43;;;;;;;5.10;2.00;;;;;;;20.25;54.50;98482.28;137437;1274;22229;-81
2023/06/28 09:52:46;;;;;;;3.60;1.70;;;;;;;20.54;52.73;98480.47;137450;1274;22225;-81
2023/06/28 09:55:49;;;;;;;6.10;1.80;;;;;;;20.92;51.92;98476.70;137400;1262;22219;-82
2023/06/28 09:58:51;;;;;;;8.90;2.30;;;;;;;21.41;51.50;98468.70;137391;1274;22848;-83
2023/06/28 10:01:54;;;;;;;6.40;2.10;;;;;;;21.98;48.72;98464.95;137413;1274;22339;-82
2023/06/28 10:04:56;;;;;;;4.30;1.70;;;;;;;22.27;47.20;98469.45;137375;1274;22262;-82
2023/06/28 10:08:03;;;;;;;7.40;1.80;;;;;;;22.37;45.98;98470.28;137359;1274;22168;-83
2023/06/28 10:11:06;;;;;;;4.30;1.60;;;;;;;22.33;45.93;98464.06;137372;1274;22217;-84
2023/06/28 10:14:08;;;;;;;3.80;2.20;;;;;;;22.18;47.04;98456.87;137482;1271;22813;-84
2023/06/28 10:17:11;;;;;;;5.80;1.70;;;;;;;22.55;47.36;98452.11;137513;1274;22377;-83
2023/06/28 10:20:13;;;;;;;3.70;1.90;;;;;;;23.14;46.66;98445.31;137330;1274;22286;-83
2023/06/28 10:23:19;;;;;;;3.80;1.60;;;;;;;23.54;44.52;98439.60;137356;1274;22236;-82
2023/06/28 10:26:22;;;;;;;4.70;2.60;;;;;;;23.31;44.11;98443.50;137454;1274;22598;-83
2023/06/28 10:29:24;;;;;;;8.00;2.50;;;;;;;22.57;45.78;98459.33;137415;1274;22702;-82
2023/06/28 10:32:27;;;;;;;5.90;2.00;;;;;;;21.91;47.21;98464.86;137414;1274;22342;-81
2023/06/28 10:35:30;;;;;;;4.70;2.20;;;;;;;21.26;48.32;98468.56;137418;1274;22380;-82
2023/06/28 10:38:34;;;;;;;7.50;1.90;;;;;;;20.91;48.62;98465.22;137361;1274;22272;-82
2023/06/28 10:41:36;;;;;;;6.30;2.20;;;;;;;20.63;48.55;98463.70;137432;1274;22934;-83
2023/06/28 10:44:39;;;;;;;6.50;2.50;;;;;;;20.39;49.62;98457.29;137341;1274;22207;-82
2023/06/28 10:47:42;;;;;;;11.20;2.10;;;;;;;20.19;50.18;98465.16;137356;1274;22214;-82
2023/06/28 10:50:44;;;;;;;6.00;2.10;;;;;;;20.00;50.91;98469.16;137392;1274;22340;-80
2023/06/28 10:53:47;;;;;;;9.70;3.70;;;;;;;19.88;51.42;98473.20;137373;1274;22325;-83
2023/06/28 10:56:50;;;;;;;12.10;2.80;;;;;;;19.82;50.30;98473.76;137456;1274;22328;-79
2023/06/28 10:59:55;;;;;;;9.70;2.80;;;;;;;19.76;49.72;98481.01;137410;1265;22161;-83
2023/06/28 11:02:57;;;;;;;5.00;2.30;;;;;;;19.82;49.38;98480.64;137393;1274;22482;-83
2023/06/28 11:06:00;;;;;;;10.70;3.20;;;;;;;19.84;49.03;98472.79;137414;1274;22272;-84
2023/06/28 11:09:04;;;;;;;11.60;2.90;;;;;;;19.99;49.43;98465.11;137445;1274;22228;-83
2023/06/28 11:12:07;;;;;;;20.50;3.00;;;;;;;20.28;49.24;98461.34;137388;1274;22191;-81
2023/06/28 11:15:10;;;;;;;5.00;2.40;;;;;;;20.60;49.57;98460.26;137399;1274;22301;-83
2023/06/28 11:18:12;;;;;;;6.60;2.20;;;;;;;20.99;49.14;98457.33;137485;1271;22267;-85
2023/06/28 11:21:16;;;;;;;8.10;2.10;;;;;;;21.30;48.40;98457.27;137221;1274;22252;-83
2023/06/28 11:24:18;;;;;;;5.50;2.20;;;;;;;21.59;48.40;98459.88;137263;1274;22542;-83
2023/06/28 11:27:21;;;;;;;3.80;2.20;;;;;;;22.05;47.06;98449.05;137404;1274;22718;-81
2023/06/28 11:30:23;;;;;;;12.40;3.00;;;;;;;22.54;45.08;98454.15;137207;1274;22417;-80
2023/06/28 11:33:26;;;;;;;4.50;2.10;;;;;;;22.46;45.27;98459.45;137436;1274;22580;-82
2023/06/28 11:36:29;;;;;;;7.50;2.00;;;;;;;22.15;43.90;98482.14;137408;1274;22276;-81
2023/06/28 11:39:31;;;;;;;6.70;2.70;;;;;;;21.82;44.54;98479.73;137499;1274;22782;-80
2023/06/28 11:42:34;;;;;;;5.30;2.80;;;;;;;21.77;45.02;98475.86;137477;1274;22245;-82
2023/06/28 11:45:37;;;;;;;3.90;1.90;;;;;;;22.08;45.61;98470.94;137503;1274;22295;-81
2023/06/28 11:48:40;;;;;;;6.00;1.80;;;;;;;22.12;45.18;98465.61;137424;1274;22364;-82
2023/06/28 11:51:42;;;;;;;6.50;2.10;;;;;;;22.24;45.12;98464.27;137409;1274;22652;-80
2023/06/28 11:54:45;;;;;;;9.30;2.20;;;;;;;22.46;44.46;98458.35;137386;1274;22240;-82
2023/06/28 11:57:47;;;;;;;9.20;2.00;;;;;;;22.81;43.41;98452.63;137391;1274;22213;-83
2023/06/28 12:00:50;;;;;;;6.10;2.30;;;;;;;22.90;42.86;98459.19;137343;1274;22239;-82
2023/06/28 12:03:53;;;;;;;3.60;2.10;;;;;;;22.84;42.71;98463.84;137354;1274;22305;-84
2023/06/28 12:06:55;;;;;;;18.40;2.70;;;;;;;22.62;42.37;98452.37;137335;1270;22211;-83
2023/06/28 12:09:59;;;;;;;5.50;2.30;;;;;;;22.34;41.63;98456.38;137319;1274;22378;-81
2023/06/28 12:13:02;;;;;;;5.70;2.00;;;;;;;22.21;42.51;98454.26;137321;1274;22268;-81
2023/06/28 12:16:05;;;;;;;6.30;3.10;;;;;;;22.35;42.69;98450.49;137309;1274;22529;-82
2023/06/28 12:19:07;;;;;;;5.90;2.20;;;;;;;22.41;43.27;98447.23;137338;1274;22325;-83
2023/06/28 12:22:10;;;;;;;5.70;2.10;;;;;;;22.54;43.58;98443.48;137338;1274;22217;-81
2023/06/28 12:25:13;;;;;;;6.00;2.20;;;;;;;22.73;43.54;98435.79;137309;1274;22202;-83
2023/06/28 12:28:15;;;;;;;2.90;2.00;;;;;;;22.44;43.53;98438.05;137322;1274;22203;-83
2023/06/28 12:31:17;;;;;;;7.60;2.70;;;;;;;22.03;44.12;98447.38;137356;1274;22222;-82
2023/06/28 12:34:20;;;;;;;4.20;1.80;;;;;;;21.75;44.92;98447.59;137199;1274;22228;-82
2023/06/28 12:37:22;;;;;;;5.00;2.00;;;;;;;21.71;45.79;98453.62;137371;1255;22175;-84
2023/06/28 12:40:25;;;;;;;6.30;1.80;;;;;;;21.59;44.70;98466.44;137345;1274;22350;-80
2023/06/28 12:43:28;;;;;;;4.20;2.20;;;;;;;21.49;42.94;98457.41;137384;1274;22936;-83
2023/06/28 12:46:31;;;;;;;4.30;1.90;;;;;;;21.65;43.74;98461.23;137338;1274;22821;-80
2023/06/28 12:49:36;;;;;;;3.40;1.80;;;;;;;21.95;44.12;98466.48;137270;1259;22248;-82
2023/06/28 12:52:39;;;;;;;5.10;1.90;;;;;;;22.16;43.72;98470.78;137281;1274;22279;-82
2023/06/28 12:55:41;;;;;;;6.30;1.90;;;;;;;22.46;42.96;98467.06;137307;1274;22759;-84
2023/06/28 12:58:44;;;;;;;2.00;1.60;;;;;;;22.73;42.53;98467.72;137387;1274;22354;-84
2023/06/28 13:01:47;;;;;;;6.40;1.70;;;;;;;22.71;42.45;98470.42;137362;1274;22236;-83
2023/06/28 13:04:49;;;;;;;5.50;2.00;;;;;;;22.82;43.01;98471.05;137383;1274;22419;-83
2023/06/28 13:07:52;;;;;;;11.10;2.30;;;;;;;22.92;43.12;98470.80;137219;1274;22567;-84
2023/06/28 13:10:55;;;;;;;4.20;2.00;;;;;;;22.68;43.66;98472.72;137428;1274;22135;-85
2023/06/28 13:13:58;;;;;;;62.20;4.40;;;;;;;22.44;44.22;98484.30;137453;1274;22219;-86
2023/06/28 13:17:03;;;;;;;3.00;1.80;;;;;;;22.49;43.26;98484.11;137487;1274;22212;-85
2023/06/28 13:20:06;;;;;;;8.10;2.00;;;;;;;22.41;43.55;98483.38;137325;1258;22201;-85
2023/06/28 13:23:09;;;;;;;3.20;2.10;;;;;;;22.27;43.72;98486.64;137360;1274;22189;-81
2023/06/28 13:26:12;;;;;;;7.80;2.30;;;;;;;22.01;44.12;98484.30;137403;1274;22346;-86
2023/06/28 13:29:17;;;;;;;5.10;2.10;;;;;;;21.77;45.43;98484.73;137391;1274;22267;-86
2023/06/28 13:32:20;;;;;;;5.90;2.10;;;;;;;21.58;47.06;98493.20;137406;1274;22202;-85
2023/06/28 13:35:23;;;;;;;5.90;2.00;;;;;;;21.42;48.14;98495.95;137028;1274;22387;-85
2023/06/28 13:38:26;;;;;;;8.40;2.40;;;;;;;21.27;49.56;98503.04;137291;1274;22861;-87
2023/06/28 13:41:29;;;;;;;4.90;2.10;;;;;;;21.08;50.54;98508.46;137303;1274;22323;-86
2023/06/28 13:44:32;;;;;;;6.20;2.60;;;;;;;20.88;51.55;98511.16;137178;1274;23576;-87
2023/06/28 13:47:35;;;;;;;11.50;2.20;;;;;;;20.71;52.19;98520.69;136991;1274;22621;-85
2023/06/28 13:50:37;;;;;;;13.10;2.90;;;;;;;20.54;52.63;98525.36;137322;1274;22238;-81
2023/06/28 13:53:40;;;;;;;7.80;2.60;;;;;;;20.51;52.83;98521.55;137378;1274;22790;-85
2023/06/28 13:56:44;;;;;;;6.80;2.50;;;;;;;20.58;52.93;98526.29;137384;1274;22188;-86
2023/06/28 13:59:50;;;;;;;5.90;2.30;;;;;;;20.40;53.16;98530.58;137377;1274;22477;-85
2023/06/28 14:02:53;;;;;;;6.20;2.20;;;;;;;20.03;52.55;98540.38;137412;1267;22199;-84